Time;durP1;ratioP1;P1;durP2;ratioP2;P2;SDS_P1;SDS_P2;PMS_P1;PMS_P2;Temp;Humidity;BMP_temperature;BMP_pressure;BME280_temperature;BME280_humidity;BME280_pressure;Samples;Min_cycle;Max_cycle;Signal;HPM_P1;HPM_P2
2023/03/29 10:58:49;;;;;;;3.20;2.40;;;;;;;6.98;41.55;101691.70;105784;1286;559569;-48
2023/03/29 11:01:19;;;;;;;3.40;3.00;;;;;;;8.44;39.94;101681.04;105931;1287;25431;-48
2023/03/29 11:04:16;;;;;;;3.10;2.50;;;;;;;8.74;39.22;101680.89;105506;1291;22560;-48
2023/03/29 11:06:51;;;;;;;3.20;2.60;;;;;;;8.91;37.94;101692.48;105757;1289;24429;-48
2023/03/29 11:09:58;;;;;;;4.40;2.60;;;;;;;8.90;37.31;101691.98;105397;1287;1002963;-48
2023/03/29 11:12:27;;;;;;;2.90;2.60;;;;;;;8.82;37.93;101695.61;105906;1278;260518;-48
2023/03/29 11:15:13;;;;;;;3.20;2.60;;;;;;;8.76;38.24;101693.35;106226;1285;22599;-48
2023/03/29 11:18:21;;;;;;;3.30;2.60;;;;;;;8.73;37.93;101694.89;105088;1285;1002841;-47
2023/03/29 11:21:08;;;;;;;4.20;2.50;;;;;;;8.74;37.46;101697.67;104739;1291;1002883;-49
2023/03/29 11:24:10;;;;;;;3.60;2.70;;;;;;;8.72;36.87;101702.16;105405;1293;26545;-48
2023/03/29 11:26:57;;;;;;;4.10;2.90;;;;;;;8.74;36.99;101699.91;104705;1297;24229;-48
2023/03/29 11:29:24;;;;;;;3.70;2.70;;;;;;;8.78;37.78;101711.51;104891;1303;25506;-48
2023/03/29 11:32:06;;;;;;;3.10;2.80;;;;;;;8.73;37.47;101711.16;104187;1296;1015712;-46
2023/03/29 11:34:51;;;;;;;3.30;3.00;;;;;;;8.66;36.92;101704.24;104915;1291;24711;-48
2023/03/29 11:37:42;;;;;;;2.90;2.50;;;;;;;8.63;36.58;101704.23;104218;1297;22687;-49
2023/03/29 11:40:28;;;;;;;3.20;2.90;;;;;;;8.66;36.17;101699.91;105420;1291;22539;-49
2023/03/29 11:42:57;;;;;;;2.70;2.10;;;;;;;8.74;35.74;101700.09;104489;1291;1003601;-48
2023/03/29 11:45:31;;;;;;;2.10;1.90;;;;;;;8.87;35.68;101698.89;104851;1291;1002933;-48
2023/03/29 11:47:58;;;;;;;2.00;1.80;;;;;;;9.00;35.28;101704.09;105383;1293;25428;-47
2023/03/29 11:50:38;;;;;;;2.00;1.80;;;;;;;9.00;35.32;101707.20;105798;1290;25481;-48
2023/03/29 11:53:08;;;;;;;2.00;1.80;;;;;;;8.94;35.34;101708.59;104783;1291;1003714;-47
2023/03/29 11:55:36;;;;;;;2.10;1.90;;;;;;;8.86;33.91;101707.54;105497;1288;22655;-47
2023/03/29 11:58:09;;;;;;;2.70;1.90;;;;;;;8.79;34.36;101707.70;105866;1282;22536;-48
2023/03/29 12:00:47;;;;;;;2.00;1.80;;;;;;;8.79;35.33;101708.39;106031;1282;24281;-48
2023/03/29 12:03:38;;;;;;;2.60;2.20;;;;;;;8.74;35.57;101714.29;105341;1273;1003106;-48
2023/03/29 12:06:11;;;;;;;2.40;1.90;;;;;;;8.65;35.45;101712.38;106005;1273;1002835;-48
2023/03/29 12:08:49;;;;;;;2.90;1.80;;;;;;;8.60;35.96;101708.04;106735;1276;25565;-48
2023/03/29 12:11:47;;;;;;;3.20;1.80;;;;;;;8.61;36.35;101710.64;106350;1281;25460;-47
2023/03/29 12:14:44;;;;;;;2.10;1.90;;;;;;;8.65;36.64;101716.01;105518;1276;1002922;-48
2023/03/29 12:17:15;;;;;;;2.30;1.40;;;;;;;8.62;35.69;101720.14;105488;1278;1002400;-49
2023/03/29 12:19:49;;;;;;;2.10;1.50;;;;;;;8.52;36.09;101723.59;106153;1281;22583;-47
2023/03/29 12:22:16;;;;;;;1.60;1.50;;;;;;;8.43;36.05;101729.62;106037;1282;24657;-48
2023/03/29 12:24:45;;;;;;;2.70;2.10;;;;;;;8.41;36.07;101729.62;106206;1283;25552;-48
2023/03/29 12:27:15;;;;;;;2.30;2.10;;;;;;;8.41;36.01;101730.66;105951;1264;24259;-47
2023/03/29 12:29:51;;;;;;;4.00;2.00;;;;;;;8.47;36.73;101735.33;106513;1279;22544;-48
2023/03/29 12:32:24;;;;;;;2.90;2.30;;;;;;;8.55;36.48;101739.15;106198;1282;25492;-49
2023/03/29 12:35:09;;;;;;;4.30;2.20;;;;;;;8.60;35.79;101737.27;106242;1279;25349;-47
2023/03/29 12:38:18;;;;;;;3.50;1.90;;;;;;;8.64;35.21;101745.23;106353;1278;25487;-46
2023/03/29 12:41:26;;;;;;;2.20;1.50;;;;;;;8.62;34.97;101738.30;105609;1279;1015596;-48
2023/03/29 12:43:53;;;;;;;4.30;1.70;;;;;;;8.61;35.87;101740.73;105331;1281;1003821;-50
2023/03/29 12:46:45;;;;;;;2.10;1.90;;;;;;;8.72;35.23;101743.17;105286;1284;1002606;-48
2023/03/29 12:49:34;;;;;;;2.60;1.80;;;;;;;8.80;34.40;101744.73;106268;1276;25347;-48
2023/03/29 12:52:06;;;;;;;2.00;1.30;;;;;;;8.84;35.52;101746.48;106465;1277;22529;-47
2023/03/29 12:54:33;;;;;;;1.90;1.50;;;;;;;8.84;35.89;101755.30;106723;1273;22514;-52
2023/03/29 12:57:20;;;;;;;2.30;2.00;;;;;;;8.83;34.71;101755.46;106501;1270;1003762;-49
2023/03/29 12:59:48;;;;;;;2.30;2.00;;;;;;;8.86;34.36;101756.69;106540;1273;1003081;-48
2023/03/29 13:02:16;;;;;;;2.30;1.60;;;;;;;8.89;34.16;101758.25;106472;1270;1003567;-49
2023/03/29 13:04:52;;;;;;;2.40;2.20;;;;;;;8.88;34.38;101762.74;106408;1273;1003428;-49
2023/03/29 13:07:22;;;;;;;3.80;2.70;;;;;;;8.86;33.99;101762.57;107247;1266;22521;-48
2023/03/29 13:09:51;;;;;;;3.00;1.90;;;;;;;8.84;33.99;101759.80;107133;1270;25343;-48
2023/03/29 13:12:23;;;;;;;8.10;2.00;;;;;;;8.82;34.60;101758.40;107224;1267;25459;-48
2023/03/29 13:15:13;;;;;;;2.20;1.70;;;;;;;8.79;34.21;101758.92;107165;1267;22731;-48
2023/03/29 13:17:49;;;;;;;1.80;1.60;;;;;;;8.78;34.94;101761.84;106417;1269;1002965;-48
2023/03/29 13:20:41;;;;;;;2.70;1.80;;;;;;;8.77;35.42;101771.36;107138;1271;22532;-48
2023/03/29 13:23:27;;;;;;;;;;;;;;;8.73;36.44;101772.39;107226;1269;25312;-47
2023/03/29 13:26:10;;;;;;;2.80;1.70;;;;;;;8.71;36.57;101775.34;106403;1267;1003503;-48
2023/03/29 13:29:05;;;;;;;2.00;1.80;;;;;;;8.71;36.96;101777.59;106464;1268;1003048;-48
2023/03/29 13:31:47;;;;;;;1.60;1.50;;;;;;;8.72;35.98;101782.08;107256;1268;25344;-48
2023/03/29 13:34:44;;;;;;;3.50;1.60;;;;;;;8.72;35.79;101777.42;106477;1269;1002838;-48
2023/03/29 13:37:42;;;;;;;3.00;1.60;;;;;;;8.72;35.43;101782.42;106431;1266;1002826;-47
2023/03/29 13:40:55;;;;;;;1.90;1.50;;;;;;;8.71;34.36;101782.26;107189;1266;24223;-48
2023/03/29 13:43:50;;;;;;;2.90;1.60;;;;;;;8.76;33.79;101777.77;105738;1279;1003796;-48
2023/03/29 13:46:39;;;;;;;2.80;1.60;;;;;;;8.83;33.29;101791.64;106272;1283;25334;-48
2023/03/29 13:49:23;;;;;;;1.40;1.30;;;;;;;8.89;32.14;101788.52;105454;1286;1003123;-48
2023/03/29 13:52:11;;;;;;;1.90;1.40;;;;;;;8.91;32.70;101792.16;106405;1279;25409;-47
2023/03/29 13:54:53;;;;;;;2.00;1.50;;;;;;;8.88;34.01;101798.04;105911;1287;22543;-48
2023/03/29 13:57:29;;;;;;;2.80;1.70;;;;;;;8.81;34.66;101796.64;105490;1284;1003565;-48
2023/03/29 14:00:10;;;;;;;2.20;1.80;;;;;;;8.72;34.86;101807.52;106213;1279;25515;-48
2023/03/29 14:02:54;;;;;;;2.70;2.30;;;;;;;8.62;35.03;101810.25;106200;1284;25331;-48
2023/03/29 14:05:31;;;;;;;2.40;1.70;;;;;;;8.56;34.96;101809.71;106106;1284;22529;-48
2023/03/29 14:08:12;;;;;;;2.00;1.70;;;;;;;8.54;35.24;101807.98;106695;1281;25353;-49
2023/03/29 14:10:42;;;;;;;2.30;1.80;;;;;;;8.55;34.42;101809.02;106420;1273;22542;-48
2023/03/29 14:13:12;;;;;;;1.90;1.60;;;;;;;8.54;33.38;101815.08;106108;1285;24446;-48
2023/03/29 14:15:54;;;;;;;3.10;1.40;;;;;;;8.57;32.39;101818.20;106439;1272;26006;-48
2023/03/29 14:18:24;;;;;;;1.80;1.30;;;;;;;8.63;32.58;101819.60;106362;1279;22551;-48
2023/03/29 14:20:53;;;;;;;1.90;1.40;;;;;;;8.70;32.32;101818.23;107010;1273;22540;-47
2023/03/29 14:23:24;;;;;;;1.60;1.50;;;;;;;8.77;31.55;101819.29;106063;1270;1003680;-48
2023/03/29 14:25:51;;;;;;;2.00;1.70;;;;;;;8.80;31.23;101818.96;106447;1270;1003602;-47
2023/03/29 14:28:22;;;;;;;1.60;1.50;;;;;;;8.81;31.06;101820.51;107402;1263;25488;-48
2023/03/29 14:30:51;;;;;;;1.80;1.50;;;;;;;8.78;31.49;101829.67;107724;1265;23357;-48
2023/03/29 14:33:28;;;;;;;1.80;1.50;;;;;;;8.74;32.55;101837.11;106208;1273;1003353;-47
2023/03/29 14:35:56;;;;;;;2.00;1.80;;;;;;;8.61;33.83;101835.86;106670;1269;1002870;-47
2023/03/29 14:38:23;;;;;;;2.00;1.80;;;;;;;8.40;34.20;101840.78;107092;1267;25200;-49
2023/03/29 14:40:51;;;;;;;3.00;2.10;;;;;;;8.22;34.86;101845.34;107122;1266;25542;-49
2023/03/29 14:43:23;;;;;;;3.50;2.10;;;;;;;8.11;35.36;101852.20;107090;1270;25315;-48
2023/03/29 14:45:50;;;;;;;2.20;2.00;;;;;;;8.05;35.42;101854.40;107186;1270;25475;-48
2023/03/29 14:48:17;;;;;;;2.30;1.90;;;;;;;8.00;35.29;101856.79;106345;1270;1002673;-47
2023/03/29 14:50:44;;;;;;;2.70;2.20;;;;;;;7.93;35.01;101861.05;107035;1269;25492;-48
2023/03/29 14:53:17;;;;;;;2.90;2.50;;;;;;;7.88;35.07;101866.38;107183;1272;25411;-47
2023/03/29 14:55:47;;;;;;;3.00;2.30;;;;;;;7.83;35.51;101866.17;107171;1271;22527;-48
2023/03/29 14:58:28;;;;;;;2.90;2.20;;;;;;;7.80;35.65;101869.95;106881;1261;22688;-48
2023/03/29 15:00:55;;;;;;;3.10;2.50;;;;;;;7.80;35.74;101873.74;107196;1269;25459;-48
2023/03/29 15:03:28;;;;;;;3.10;2.40;;;;;;;7.84;35.60;101874.64;107726;1267;25324;-48
2023/03/29 15:06:00;;;;;;;3.60;2.10;;;;;;;7.88;35.44;101881.23;106564;1268;1003238;-48
2023/03/29 15:08:33;;;;;;;2.70;2.20;;;;;;;7.94;35.47;101884.21;106172;1273;1002908;-48
2023/03/29 15:11:01;;;;;;;2.80;2.20;;;;;;;8.00;34.41;101886.68;106161;1273;1003504;-46
2023/03/29 15:13:28;;;;;;;2.50;1.80;;;;;;;8.05;34.06;101886.54;106178;1273;1003041;-49
2023/03/29 15:15:59;;;;;;;2.80;2.20;;;;;;;8.10;34.05;101885.02;107118;1273;25474;-48
2023/03/29 15:18:39;;;;;;;3.30;1.70;;;;;;;8.13;33.74;101887.29;106473;1267;1003657;-49
2023/03/29 15:21:07;;;;;;;3.00;2.50;;;;;;;8.14;33.86;101894.37;106464;1267;1003052;-49
2023/03/29 15:23:47;;;;;;;2.90;2.10;;;;;;;8.16;34.07;101895.09;107162;1267;23288;-49
2023/03/29 15:26:19;;;;;;;3.20;2.00;;;;;;;8.15;34.50;101896.98;106391;1273;1003637;-49
2023/03/29 15:28:48;;;;;;;4.50;2.40;;;;;;;8.10;34.95;101900.91;107186;1268;25319;-48
2023/03/29 15:31:17;;;;;;;3.20;2.20;;;;;;;8.03;35.01;101905.36;106417;1270;1003532;-47
2023/03/29 15:33:45;;;;;;;1.90;1.70;;;;;;;7.97;34.83;101906.01;106903;1273;22731;-47
2023/03/29 15:36:13;;;;;;;3.50;2.00;;;;;;;7.87;34.75;101912.84;107160;1269;24062;-48
2023/03/29 15:38:41;;;;;;;2.70;1.80;;;;;;;7.76;35.24;101915.35;107003;1273;25417;-48
2023/03/29 15:41:14;;;;;;;2.10;1.90;;;;;;;7.68;35.27;101916.84;107173;1267;22560;-49
2023/03/29 15:43:42;;;;;;;2.10;1.90;;;;;;;7.64;35.45;101923.88;106968;1274;24184;-49
2023/03/29 15:46:11;;;;;;;3.50;2.70;;;;;;;7.60;34.70;101925.92;107086;1273;22577;-47
2023/03/29 15:48:38;;;;;;;2.30;2.10;;;;;;;7.59;34.74;101925.21;106359;1270;1003583;-49
2023/03/29 15:51:06;;;;;;;3.20;2.00;;;;;;;7.59;34.85;101924.69;107031;1257;25373;-47
2023/03/29 15:56:55;;;;;;;3.70;2.30;;;;;;;7.60;34.45;101931.27;103764;1303;544780;-48
2023/03/29 15:59:24;;;;;;;3.80;2.60;;;;;;;7.55;35.05;101928.81;105916;1283;24279;-48
2023/03/29 16:01:53;;;;;;;3.60;2.20;;;;;;;7.57;35.20;101931.95;105901;1281;25349;-49
2023/03/29 16:04:22;;;;;;;3.30;2.40;;;;;;;7.60;35.29;101935.92;105940;1282;22549;-47
2023/03/29 16:06:52;;;;;;;3.50;2.30;;;;;;;7.62;35.34;101938.55;106610;1271;25369;-47
2023/03/29 16:09:21;;;;;;;2.50;2.20;;;;;;;7.63;35.02;101942.18;106060;1270;216838;-49
2023/03/29 16:11:53;;;;;;;4.20;2.60;;;;;;;7.61;35.27;101947.52;105860;1273;1002843;-48
2023/03/29 16:14:30;;;;;;;3.70;2.30;;;;;;;7.59;35.55;101951.48;106649;1273;26759;-47
2023/03/29 16:16:59;;;;;;;4.20;2.10;;;;;;;7.60;35.89;101951.83;106106;1268;1003686;-47
2023/03/29 16:19:30;;;;;;;2.30;1.80;;;;;;;7.62;35.71;101946.48;106840;1268;26479;-49
2023/03/29 16:22:00;;;;;;;2.10;1.60;;;;;;;7.62;35.44;101952.02;106965;1268;22673;-49
2023/03/29 16:24:30;;;;;;;3.10;2.00;;;;;;;7.61;35.01;101948.73;106849;1268;24289;-48
2023/03/29 16:27:00;;;;;;;3.20;2.40;;;;;;;7.59;34.74;101946.27;106163;1268;1003041;-48
2023/03/29 16:29:29;;;;;;;3.50;3.00;;;;;;;7.55;34.85;101950.05;106962;1268;24238;-48
2023/03/29 16:31:58;;;;;;;3.50;2.80;;;;;;;7.52;34.83;101959.17;106866;1268;24260;-48
2023/03/29 16:34:27;;;;;;;4.80;2.60;;;;;;;7.50;34.95;101963.11;106909;1268;22610;-48
2023/03/29 16:36:55;;;;;;;3.00;2.40;;;;;;;7.50;35.03;101965.86;106869;1268;25364;-48
2023/03/29 16:39:24;;;;;;;4.50;2.30;;;;;;;7.50;35.38;101965.52;106044;1276;1002732;-48
2023/03/29 16:41:53;;;;;;;3.00;2.30;;;;;;;7.50;35.59;101973.64;106829;1269;24380;-48
2023/03/29 16:44:23;;;;;;;3.60;2.50;;;;;;;7.50;35.67;101974.51;109620;1275;1002248;-48
2023/03/29 16:46:57;;;;;;;4.00;2.60;;;;;;;7.50;35.86;101979.35;110463;1273;22248;-48
2023/03/29 16:49:26;;;;;;;3.20;1.90;;;;;;;7.49;35.63;101985.03;110492;1268;22962;-48
2023/03/29 16:51:59;;;;;;;2.70;2.30;;;;;;;7.47;35.65;101986.39;110455;1268;22917;-48
2023/03/29 16:54:30;;;;;;;6.90;2.80;;;;;;;7.47;35.73;101990.71;110468;1276;22893;-48
2023/03/29 16:56:59;;;;;;;57.20;29.80;;;;;;;7.48;35.79;101993.99;110457;1269;22131;-48
2023/03/29 16:59:27;;;;;;;24.70;14.90;;;;;;;7.48;35.77;101995.90;110532;1276;22306;-48
2023/03/29 17:01:55;;;;;;;12.60;8.30;;;;;;;7.49;36.16;101995.92;110486;1268;22338;-48
2023/03/29 17:04:24;;;;;;;7.70;5.60;;;;;;;7.50;36.12;101998.16;110479;1273;22134;-48
2023/03/29 17:06:52;;;;;;;4.20;2.80;;;;;;;7.49;36.07;102001.77;109707;1276;1002858;-49
2023/03/29 17:09:20;;;;;;;3.80;3.00;;;;;;;7.47;36.29;102006.42;110485;1268;22358;-48
2023/03/29 17:11:49;;;;;;;3.80;2.50;;;;;;;7.46;36.56;102012.79;110469;1269;22330;-48
2023/03/29 17:14:17;;;;;;;1.80;1.70;;;;;;;7.46;36.75;102014.00;110444;1269;23258;-48
2023/03/29 17:16:45;;;;;;;2.20;1.90;;;;;;;7.46;36.88;102017.80;110371;1269;22402;-48
2023/03/29 17:19:14;;;;;;;2.20;2.00;;;;;;;7.47;36.88;102019.71;110485;1268;22328;-48
2023/03/29 17:21:42;;;;;;;1.90;1.50;;;;;;;7.47;36.75;102019.88;109741;1268;1002232;-48
2023/03/29 17:24:13;;;;;;;2.10;1.80;;;;;;;7.47;36.77;102021.08;109705;1268;1002693;-48
2023/03/29 17:26:42;;;;;;;1.70;1.40;;;;;;;7.45;36.78;102024.52;110458;1276;22373;-48
2023/03/29 17:29:12;;;;;;;2.10;1.90;;;;;;;7.43;36.85;102034.87;109726;1268;1002919;-48
2023/03/29 17:31:46;;;;;;;1.70;1.50;;;;;;;7.42;37.03;102032.95;110495;1268;22150;-48
2023/03/29 17:34:16;;;;;;;1.90;1.60;;;;;;;7.40;37.12;102036.55;110451;1276;22293;-48
2023/03/29 17:36:45;;;;;;;2.00;1.80;;;;;;;7.37;37.20;102041.01;110169;1269;22298;-48
2023/03/29 17:39:14;;;;;;;1.80;1.60;;;;;;;7.32;37.30;102041.47;110477;1268;22272;-48
2023/03/29 17:41:42;;;;;;;2.60;2.00;;;;;;;7.29;37.69;102041.24;110419;1269;22348;-48
2023/03/29 17:44:14;;;;;;;4.20;2.20;;;;;;;7.27;37.72;102045.38;110475;1268;22993;-48
2023/03/29 17:46:43;;;;;;;4.10;3.60;;;;;;;7.25;37.90;102045.88;110468;1276;22350;-48
2023/03/29 17:49:15;;;;;;;3.60;2.80;;;;;;;7.24;38.15;102048.27;110461;1272;22378;-48
2023/03/29 17:51:45;;;;;;;6.00;4.20;;;;;;;7.22;38.32;102052.55;110310;1271;22118;-48
2023/03/29 17:54:13;;;;;;;3.80;3.10;;;;;;;7.19;38.65;102052.70;110433;1276;22136;-48
2023/03/29 17:56:42;;;;;;;3.90;3.20;;;;;;;7.18;38.96;102052.67;110464;1268;22486;-49
2023/03/29 17:59:10;;;;;;;3.30;2.90;;;;;;;7.16;38.94;102050.76;109730;1268;1002657;-48
2023/03/29 18:01:41;;;;;;;3.10;2.60;;;;;;;7.14;39.10;102050.91;110419;1268;22991;-48
2023/03/29 18:04:10;;;;;;;3.10;2.40;;;;;;;7.13;39.03;102054.01;110177;1269;22168;-48
2023/03/29 18:06:38;;;;;;;3.90;2.90;;;;;;;7.10;38.93;102054.13;110443;1276;22349;-48
2023/03/29 18:09:12;;;;;;;2.90;2.70;;;;;;;7.07;39.04;102054.27;109711;1268;1002634;-48
2023/03/29 18:11:41;;;;;;;7.50;4.20;;;;;;;7.05;39.30;102056.83;109735;1268;1002522;-48
2023/03/29 18:14:10;;;;;;;3.30;2.80;;;;;;;7.03;39.21;102060.77;110489;1268;22114;-48
2023/03/29 18:16:40;;;;;;;3.70;2.70;;;;;;;7.01;39.38;102060.04;110468;1276;22154;-48
2023/03/29 18:19:10;;;;;;;3.70;3.00;;;;;;;6.99;39.44;102058.12;110399;1270;22156;-47
2023/03/29 18:21:38;;;;;;;3.40;2.90;;;;;;;6.97;39.57;102062.58;110229;1273;22293;-48
2023/03/29 18:24:07;;;;;;;3.40;2.60;;;;;;;6.94;39.55;102059.60;110517;1268;22302;-48
2023/03/29 18:26:35;;;;;;;3.10;2.80;;;;;;;6.90;39.65;102063.34;109436;1276;1003055;-47
2023/03/29 18:29:04;;;;;;;3.40;2.50;;;;;;;6.86;39.78;102064.85;110205;1271;22292;-48
2023/03/29 18:31:37;;;;;;;2.80;2.40;;;;;;;6.84;39.86;102064.46;110473;1276;22302;-47
2023/03/29 18:34:05;;;;;;;2.80;2.30;;;;;;;6.82;39.97;102064.45;109696;1268;1002092;-48
2023/03/29 18:36:34;;;;;;;2.50;2.20;;;;;;;6.80;40.15;102063.73;110457;1268;22365;-47
2023/03/29 18:39:06;;;;;;;3.60;2.40;;;;;;;6.78;40.07;102067.66;109589;1271;1002277;-47
2023/03/29 18:41:36;;;;;;;4.20;2.60;;;;;;;6.77;40.20;102070.05;110484;1269;22900;-47
2023/03/29 18:44:06;;;;;;;5.10;2.90;;;;;;;6.75;40.16;102072.27;109735;1268;1002265;-47
2023/03/29 18:46:35;;;;;;;3.60;2.60;;;;;;;6.74;40.25;102073.64;110069;1274;22155;-48
2023/03/29 18:49:06;;;;;;;7.90;5.40;;;;;;;6.72;40.44;102077.75;110459;1268;22347;-48
2023/03/29 18:51:34;;;;;;;4.40;3.60;;;;;;;6.71;40.50;102073.77;110473;1268;22831;-48
2023/03/29 18:54:04;;;;;;;4.00;2.90;;;;;;;6.69;40.67;102075.11;110483;1268;22284;-48
2023/03/29 18:56:32;;;;;;;5.10;4.00;;;;;;;6.67;40.90;102073.54;110500;1268;22302;-48
2023/03/29 18:59:05;;;;;;;3.30;2.70;;;;;;;6.66;40.93;102075.08;109692;1276;1002917;-48
2023/03/29 19:01:34;;;;;;;2.70;2.50;;;;;;;6.65;41.10;102074.54;110487;1276;22103;-48
2023/03/29 19:04:03;;;;;;;5.80;2.50;;;;;;;6.63;40.99;102071.23;110495;1268;22361;-47
2023/03/29 19:06:32;;;;;;;9.30;5.40;;;;;;;6.62;41.15;102073.44;109732;1276;1002387;-47
2023/03/29 19:09:03;;;;;;;6.40;3.80;;;;;;;6.61;41.20;102072.05;109703;1276;1002251;-47
2023/03/29 19:11:32;;;;;;;5.10;3.30;;;;;;;6.60;41.37;102073.94;110475;1276;22115;-48
2023/03/29 19:14:01;;;;;;;4.00;2.80;;;;;;;6.59;41.39;102070.81;110177;1273;22992;-47
2023/03/29 19:16:30;;;;;;;3.00;2.60;;;;;;;6.57;41.57;102069.59;110472;1268;22289;-47
2023/03/29 19:18:58;;;;;;;2.50;2.30;;;;;;;6.55;41.78;102067.32;109721;1268;1002527;-48
2023/03/29 19:21:27;;;;;;;3.20;2.60;;;;;;;6.54;41.97;102061.95;110531;1268;22116;-48
2023/03/29 19:23:56;;;;;;;2.80;2.20;;;;;;;6.53;42.21;102063.83;110507;1273;22298;-47
2023/03/29 19:26:25;;;;;;;3.60;2.20;;;;;;;6.51;42.49;102063.27;109602;1270;1002417;-48
2023/03/29 19:28:53;;;;;;;2.50;2.20;;;;;;;6.50;42.60;102060.50;110472;1276;22199;-48
2023/03/29 19:31:22;;;;;;;2.30;2.10;;;;;;;6.48;42.76;102060.14;109720;1276;1003071;-48
2023/03/29 19:33:50;;;;;;;10.80;6.50;;;;;;;6.46;42.89;102055.10;109716;1276;1002875;-48
2023/03/29 19:36:20;;;;;;;5.70;4.00;;;;;;;6.44;43.00;102058.02;109721;1269;1002545;-49
2023/03/29 19:38:50;;;;;;;10.80;6.50;;;;;;;6.43;43.22;102057.12;110200;1271;22173;-48
2023/03/29 19:41:18;;;;;;;9.90;7.00;;;;;;;6.42;43.37;102056.24;109734;1269;1003135;-48
2023/03/29 19:43:46;;;;;;;12.50;6.60;;;;;;;6.41;43.49;102053.99;110484;1276;22173;-47
2023/03/29 19:46:16;;;;;;;9.70;6.50;;;;;;;6.40;43.58;102056.23;110466;1272;22129;-48
2023/03/29 19:48:45;;;;;;;8.00;5.20;;;;;;;6.39;43.70;102049.48;110518;1268;22127;-48
2023/03/29 19:51:14;;;;;;;7.30;5.40;;;;;;;6.38;43.91;102050.67;110497;1276;22108;-48
2023/03/29 19:53:43;;;;;;;19.30;10.70;;;;;;;6.37;44.01;102050.13;110520;1268;22154;-48
2023/03/29 19:56:18;;;;;;;12.90;7.70;;;;;;;6.36;44.20;102048.40;110523;1268;22296;-48
2023/03/29 19:58:48;;;;;;;8.00;5.30;;;;;;;6.37;44.13;102049.44;109751;1268;1002406;-48
2023/03/29 20:01:19;;;;;;;11.90;6.90;;;;;;;6.36;44.34;102047.71;109750;1268;1002687;-48
2023/03/29 20:03:48;;;;;;;7.90;4.80;;;;;;;6.37;44.40;102049.79;109769;1268;1002721;-48
2023/03/29 20:06:17;;;;;;;6.40;4.00;;;;;;;6.37;44.59;102047.38;109731;1276;1002406;-48
2023/03/29 20:08:45;;;;;;;4.00;3.40;;;;;;;6.37;44.68;102054.09;110273;1271;22322;-48
2023/03/29 20:11:15;;;;;;;4.30;3.00;;;;;;;6.37;44.81;102044.61;110537;1268;22357;-48
2023/03/29 20:13:44;;;;;;;3.00;2.60;;;;;;;6.37;44.82;102048.23;110484;1268;22444;-48
2023/03/29 20:16:14;;;;;;;3.90;3.50;;;;;;;6.36;44.86;102047.19;109743;1269;1002570;-48
2023/03/29 20:18:44;;;;;;;3.70;3.10;;;;;;;6.35;45.10;102048.21;109734;1276;1002334;-48
2023/03/29 20:21:15;;;;;;;4.00;2.60;;;;;;;6.35;45.05;102044.08;110500;1269;22899;-48
2023/03/29 20:23:44;;;;;;;3.20;2.50;;;;;;;6.33;45.03;102045.75;110533;1268;22314;-48
2023/03/29 20:26:13;;;;;;;2.80;2.40;;;;;;;6.32;45.10;102040.08;109610;1272;1003037;-48
2023/03/29 20:28:41;;;;;;;3.20;2.80;;;;;;;6.31;45.14;102041.44;110501;1268;22103;-48
2023/03/29 20:31:10;;;;;;;6.60;4.80;;;;;;;6.30;45.17;102039.70;109459;1271;1002902;-48
2023/03/29 20:33:40;;;;;;;4.60;3.30;;;;;;;6.29;45.48;102044.84;109741;1268;1002522;-48
2023/03/29 20:36:08;;;;;;;5.80;4.30;;;;;;;6.29;45.62;102048.48;110529;1268;22775;-48
2023/03/29 20:38:37;;;;;;;4.30;3.70;;;;;;;6.30;45.59;102051.77;110481;1268;22945;-48
2023/03/29 20:41:08;;;;;;;7.90;5.60;;;;;;;6.30;45.73;102046.23;109488;1268;1002466;-48
2023/03/29 20:43:36;;;;;;;4.60;3.60;;;;;;;6.29;45.75;102045.88;109526;1277;1003008;-48
2023/03/29 20:46:12;;;;;;;6.80;4.50;;;;;;;6.27;45.83;102043.79;110513;1273;22306;-48
2023/03/29 20:48:52;;;;;;;6.70;4.10;;;;;;;6.26;45.96;102041.86;109744;1276;1002997;-48
2023/03/29 20:51:21;;;;;;;6.50;4.90;;;;;;;6.24;46.14;102039.61;110506;1268;22173;-48
2023/03/29 20:53:50;;;;;;;9.30;5.80;;;;;;;6.22;46.25;102035.58;109742;1276;1002614;-48
2023/03/29 20:56:20;;;;;;;6.20;3.90;;;;;;;6.20;46.38;102039.17;109753;1272;1002414;-48
2023/03/29 20:58:49;;;;;;;4.00;3.20;;;;;;;6.19;46.48;102033.11;110559;1268;22132;-48
2023/03/29 21:01:20;;;;;;;8.00;6.00;;;;;;;6.17;46.45;102028.44;109762;1268;1002287;-48
2023/03/29 21:03:58;;;;;;;4.70;3.80;;;;;;;6.15;46.66;102030.47;110300;1272;22329;-49
2023/03/29 21:06:26;;;;;;;4.10;3.20;;;;;;;6.14;46.81;102032.52;110559;1269;23066;-48
2023/03/29 21:08:56;;;;;;;7.00;4.40;;;;;;;6.15;46.90;102038.58;110579;1268;23071;-48
2023/03/29 21:11:30;;;;;;;3.50;3.10;;;;;;;6.17;47.06;102037.05;110544;1269;22403;-48
2023/03/29 21:13:59;;;;;;;4.40;3.20;;;;;;;6.19;47.25;102036.91;110546;1268;23015;-48
2023/03/29 21:16:27;;;;;;;4.20;2.80;;;;;;;6.23;47.24;102035.44;110532;1268;23284;-48
2023/03/29 21:18:58;;;;;;;4.00;3.20;;;;;;;6.27;47.10;102035.66;110233;1276;23089;-48
2023/03/29 21:21:28;;;;;;;3.30;3.00;;;;;;;6.30;47.06;102034.17;110345;1271;22406;-48
2023/03/29 21:23:56;;;;;;;3.50;2.80;;;;;;;6.32;46.92;102030.42;110554;1268;22268;-48
2023/03/29 21:26:25;;;;;;;4.50;2.60;;;;;;;6.33;46.69;102031.29;110495;1276;22805;-48
2023/03/29 21:28:54;;;;;;;2.80;2.40;;;;;;;6.33;46.63;102035.60;110519;1268;22231;-48
2023/03/29 21:31:22;;;;;;;3.00;2.40;;;;;;;6.32;46.57;102037.30;109755;1268;1002119;-48
2023/03/29 21:33:53;;;;;;;3.60;2.70;;;;;;;6.30;46.51;102035.20;109803;1276;1002926;-48
2023/03/29 21:36:22;;;;;;;3.80;2.90;;;;;;;6.27;46.58;102034.47;110513;1268;22385;-48
2023/03/29 21:38:51;;;;;;;4.50;2.80;;;;;;;6.25;46.69;102032.54;109493;1277;1002215;-48
2023/03/29 21:41:20;;;;;;;3.40;3.00;;;;;;;6.22;46.71;102035.59;110520;1276;22136;-48
2023/03/29 21:43:49;;;;;;;3.20;2.40;;;;;;;6.20;46.82;102038.65;110484;1276;22292;-48
2023/03/29 21:46:18;;;;;;;3.70;2.60;;;;;;;6.18;46.73;102035.52;109752;1268;1003003;-48
2023/03/29 21:48:46;;;;;;;17.20;6.40;;;;;;;6.17;46.89;102034.64;110545;1269;22400;-48
2023/03/29 21:51:16;;;;;;;4.20;3.40;;;;;;;6.15;46.86;102033.74;110574;1268;22469;-48
2023/03/29 21:53:44;;;;;;;8.70;4.20;;;;;;;6.13;46.91;102034.40;109802;1273;1002319;-48
2023/03/29 21:56:13;;;;;;;4.20;3.40;;;;;;;6.11;46.95;102038.48;110531;1271;23179;-48
2023/03/29 21:58:42;;;;;;;3.20;2.80;;;;;;;6.09;46.95;102037.09;110529;1268;22444;-48
2023/03/29 22:01:11;;;;;;;5.10;3.40;;;;;;;6.07;46.85;102034.64;110409;1276;23087;-48
2023/03/29 22:03:40;;;;;;;2.80;2.60;;;;;;;6.04;46.85;102038.90;110353;1269;23101;-48
2023/03/29 22:06:11;;;;;;;3.10;2.80;;;;;;;6.01;46.93;102035.06;109471;1269;1002885;-48
2023/03/29 22:08:40;;;;;;;4.30;2.60;;;;;;;5.99;46.97;102034.17;110417;1276;22282;-48
2023/03/29 22:11:09;;;;;;;6.60;4.30;;;;;;;5.99;47.07;102032.95;110484;1268;22989;-48
2023/03/29 22:13:39;;;;;;;5.90;4.30;;;;;;;5.99;47.22;102033.65;109781;1268;1002401;-48
2023/03/29 22:16:08;;;;;;;5.60;3.50;;;;;;;5.99;47.18;102037.44;110095;1276;22433;-48
2023/03/29 22:18:42;;;;;;;4.30;3.40;;;;;;;6.01;47.28;102033.69;109751;1276;1003199;-48
2023/03/29 22:21:17;;;;;;;5.90;3.00;;;;;;;6.05;47.13;102029.80;110480;1270;22150;-48
2023/03/29 22:23:46;;;;;;;7.00;4.10;;;;;;;6.09;47.12;102032.09;109487;1268;1002425;-47
2023/03/29 22:26:16;;;;;;;5.80;3.80;;;;;;;6.13;47.14;102036.11;109747;1270;1003103;-48
2023/03/29 22:28:46;;;;;;;5.60;3.40;;;;;;;6.14;47.16;102034.23;110532;1276;22425;-48
2023/03/29 22:31:17;;;;;;;8.10;4.70;;;;;;;6.13;46.90;102034.92;110522;1269;22434;-47
2023/03/29 22:33:45;;;;;;;5.10;3.60;;;;;;;6.11;46.91;102034.88;110096;1273;22435;-48
2023/03/29 22:36:21;;;;;;;3.60;2.90;;;;;;;6.09;46.91;102032.27;110260;1276;22377;-48
2023/03/29 22:38:50;;;;;;;11.70;7.00;;;;;;;6.07;46.90;102037.58;110120;1277;22136;-48
2023/03/29 22:41:19;;;;;;;6.00;4.00;;;;;;;6.04;47.03;102039.08;109776;1268;1002750;-48
2023/03/29 22:43:52;;;;;;;5.00;3.60;;;;;;;6.02;47.10;102035.77;109751;1272;1003151;-47
2023/03/29 22:46:21;;;;;;;8.20;5.70;;;;;;;5.99;47.18;102034.35;110527;1271;22398;-47